Time;durP1;ratioP1;P1;durP2;ratioP2;P2;SDS_P1;SDS_P2;PMS_P1;PMS_P2;Temp;Humidity;BMP_temperature;BMP_pressure;BME280_temperature;BME280_humidity;BME280_pressure;Samples;Min_cycle;Max_cycle;Signal;HPM_P1;HPM_P2
2023/02/21 02:16:08;;;;;;;22.43;12.90;;;;;;;5.79;81.12;99853.20;1468530;88;21422;-76
2023/02/21 02:19:21;;;;;;;20.77;11.45;;;;;;;5.78;80.88;99847.61;1478339;88;21259;-75
2023/02/21 02:22:21;;;;;;;31.40;14.73;;;;;;;5.77;80.82;99853.81;1479778;88;21312;-76
2023/02/21 02:25:05;;;;;;;29.15;14.90;;;;;;;5.78;80.86;99859.89;1456612;87;21311;-76
2023/02/21 02:27:52;;;;;;;16.77;9.77;;;;;;;5.76;80.67;99845.59;1478910;88;22347;-76
2023/02/21 02:31:06;;;;;;;15.20;9.50;;;;;;;5.74;80.47;99844.88;1458732;88;21523;-75
2023/02/21 02:33:43;;;;;;;14.10;8.80;;;;;;;5.70;80.36;99843.48;1394131;88;21223;-74
2023/02/21 02:36:17;;;;;;;16.37;8.07;;;;;;;5.65;80.52;99843.05;1414148;88;21304;-76
2023/02/21 02:39:01;;;;;;;12.77;8.60;;;;;;;5.62;80.67;99841.51;1413791;88;21297;-76
2023/02/21 02:41:38;;;;;;;16.70;10.43;;;;;;;5.61;80.56;99839.86;1554407;88;21371;-76
2023/02/21 02:44:16;;;;;;;22.80;13.93;;;;;;;5.59;80.45;99831.75;1542468;88;21511;-76
2023/02/21 02:46:46;;;;;;;29.10;16.57;;;;;;;5.57;80.23;99832.36;1555104;88;21150;-75
2023/02/21 02:49:28;;;;;;;29.20;17.07;;;;;;;5.55;80.35;99826.39;1397603;88;21275;-74
2023/02/21 02:51:54;;;;;;;27.57;15.97;;;;;;;5.54;80.53;99828.68;1554947;88;22038;-76
2023/02/21 02:54:20;;;;;;;19.13;12.20;;;;;;;5.54;80.41;99824.74;1394967;88;21319;-76
2023/02/21 02:56:47;;;;;;;17.07;10.80;;;;;;;5.54;80.22;99818.18;1395015;88;21267;-76
2023/02/21 02:59:25;;;;;;;20.30;11.63;;;;;;;5.56;80.11;99814.95;1394899;88;22074;-75
2023/02/21 03:02:19;;;;;;;24.90;13.57;;;;;;;5.54;80.05;99806.37;1549087;88;21274;-76
2023/02/21 03:04:56;;;;;;;28.83;14.40;;;;;;;5.53;80.04;99797.67;1500823;88;21389;-75
2023/02/21 03:07:51;;;;;;;23.70;14.47;;;;;;;5.59;79.97;99797.63;1554353;88;21319;-76
2023/02/21 03:10:51;;;;;;;20.53;11.63;;;;;;;5.60;79.47;99797.97;1554956;88;21149;-75
2023/02/21 03:13:40;;;;;;;18.65;11.35;;;;;;;5.63;79.20;99790.66;1554940;88;22017;-76
2023/02/21 03:16:20;;;;;;;22.50;10.20;;;;;;;5.65;78.90;99793.98;1392376;89;21290;-76
2023/02/21 03:18:51;;;;;;;18.73;9.00;;;;;;;5.69;78.59;99795.03;1555487;88;21306;-76
2023/02/21 03:21:37;;;;;;;14.03;7.12;;;;;;;5.75;78.59;99801.89;1400147;88;21437;-75
2023/02/21 03:24:06;;;;;;;15.23;8.20;;;;;;;5.78;78.37;99799.03;1380720;88;21311;-77
2023/02/21 03:26:37;;;;;;;14.07;7.30;;;;;;;5.79;78.18;99807.25;1391193;88;21382;-76
2023/02/21 03:29:04;;;;;;;19.00;8.43;;;;;;;5.79;78.08;99813.81;1391776;88;21319;-74
2023/02/21 03:31:36;;;;;;;22.17;10.33;;;;;;;5.75;78.15;99818.96;1401437;88;21445;-76
2023/02/21 03:34:03;;;;;;;24.77;13.73;;;;;;;5.77;78.32;99834.60;1549179;88;21415;-76
2023/02/21 03:36:30;;;;;;;24.67;12.43;;;;;;;5.76;78.32;99829.84;1554986;88;21934;-76
2023/02/21 03:38:56;;;;;;;26.47;13.33;;;;;;;5.74;78.38;99833.55;1394979;88;21290;-76
2023/02/21 03:41:22;;;;;;;24.10;13.63;;;;;;;5.71;78.39;99832.02;1401296;88;21282;-76
2023/02/21 03:43:48;;;;;;;21.10;12.20;;;;;;;5.69;78.49;99833.11;1395371;88;21320;-76
2023/02/21 03:46:14;;;;;;;18.70;9.43;;;;;;;5.65;78.45;99837.30;1401375;88;21230;-76
2023/02/21 03:48:40;;;;;;;17.23;9.47;;;;;;;5.61;78.68;99831.13;1555100;88;21186;-75
2023/02/21 03:51:06;;;;;;;19.97;8.77;;;;;;;5.62;78.69;99838.88;1395677;88;22230;-76
2023/02/21 03:53:33;;;;;;;17.00;8.80;;;;;;;5.62;78.74;99841.51;1401830;88;21252;-76
2023/02/21 03:55:59;;;;;;;20.83;9.97;;;;;;;5.59;78.71;99847.02;1395058;88;22102;-77
2023/02/21 03:58:25;;;;;;;20.97;9.83;;;;;;;5.57;78.62;99838.43;1401182;88;21259;-76
2023/02/21 04:00:52;;;;;;;14.87;7.93;;;;;;;5.53;78.43;99843.60;1555075;88;21142;-76
2023/02/21 04:03:19;;;;;;;12.13;7.30;;;;;;;5.49;78.66;99847.91;1394342;88;22234;-76
2023/02/21 04:05:45;;;;;;;13.10;6.87;;;;;;;5.46;78.76;99841.61;1432777;88;21511;-76
2023/02/21 04:08:11;;;;;;;14.47;8.70;;;;;;;5.42;79.08;99840.56;1466221;88;21333;-76
2023/02/21 04:10:38;;;;;;;11.47;7.97;;;;;;;5.39;79.28;99847.38;1468448;88;21355;-76
2023/02/21 04:13:06;;;;;;;14.33;8.67;;;;;;;5.37;79.20;99845.36;1467819;88;21429;-76
2023/02/21 04:15:32;;;;;;;16.03;8.57;;;;;;;5.35;79.11;99838.56;1465522;88;21472;-76
2023/02/21 04:17:58;;;;;;;12.63;7.47;;;;;;;5.32;79.09;99843.63;1469175;88;21430;-76
2023/02/21 04:20:24;;;;;;;11.80;8.10;;;;;;;5.27;78.95;99837.92;1465326;88;22272;-76
2023/02/21 04:22:51;;;;;;;14.30;8.33;;;;;;;5.21;79.08;99834.50;1471125;88;21355;-75
2023/02/21 04:25:17;;;;;;;16.67;9.37;;;;;;;5.17;79.13;99842.25;1474407;88;21370;-76
2023/02/21 04:27:44;;;;;;;16.03;9.33;;;;;;;5.12;79.23;99845.73;1469538;88;22300;-76
2023/02/21 04:30:11;;;;;;;12.80;8.00;;;;;;;5.11;79.39;99844.08;1465986;88;21592;-77
2023/02/21 04:32:37;;;;;;;12.63;8.43;;;;;;;5.07;79.33;99845.30;1472361;88;21547;-75
2023/02/21 04:35:04;;;;;;;14.43;8.77;;;;;;;5.02;79.28;99844.84;1453697;88;21385;-75
2023/02/21 04:37:30;;;;;;;17.40;11.37;;;;;;;4.91;79.31;99839.98;1476301;88;21304;-77
2023/02/21 04:39:56;;;;;;;22.87;13.23;;;;;;;4.81;79.31;99843.02;1472967;88;21392;-77
2023/02/21 04:42:22;;;;;;;20.20;12.40;;;;;;;4.64;79.59;99836.52;1475888;88;21281;-76
2023/02/21 04:44:49;;;;;;;14.20;8.20;;;;;;;4.44;80.87;99815.02;1475823;88;21595;-80
2023/02/21 04:47:15;;;;;;;19.03;9.87;;;;;;;4.44;80.87;99817.64;1479016;88;21333;-79
2023/02/21 04:49:41;;;;;;;14.60;8.47;;;;;;;4.39;81.32;99810.14;1469140;88;21510;-78
2023/02/21 04:52:07;;;;;;;16.33;9.67;;;;;;;4.40;81.47;99810.52;1474951;88;22280;-80
2023/02/21 04:54:33;;;;;;;15.33;9.40;;;;;;;4.37;81.42;99815.97;1475948;88;22242;-79
2023/02/21 04:57:00;;;;;;;15.37;9.80;;;;;;;4.37;81.42;99815.97;1476512;88;22339;-79
2023/02/21 04:59:26;;;;;;;29.33;16.60;;;;;;;4.34;81.17;99821.45;1467896;88;22061;-79
2023/02/21 05:01:52;;;;;;;25.90;15.33;;;;;;;4.30;81.03;99823.98;1473396;88;22112;-79
2023/02/21 05:04:19;;;;;;;19.13;10.83;;;;;;;4.23;81.16;99821.47;1471967;88;22276;-80
2023/02/21 05:06:45;;;;;;;17.13;11.23;;;;;;;4.17;81.10;99827.20;1472393;88;22101;-80
2023/02/21 05:09:11;;;;;;;13.90;8.20;;;;;;;4.10;81.47;99832.58;1475348;88;22108;-80
2023/02/21 05:11:37;;;;;;;15.33;8.47;;;;;;;4.04;81.78;99828.17;1471961;88;22024;-79
2023/02/21 05:14:03;;;;;;;12.33;9.20;;;;;;;4.00;82.34;99824.59;1469529;88;23148;-80
2023/02/21 05:16:29;;;;;;;14.53;8.20;;;;;;;3.98;82.58;99820.80;1471117;88;21994;-80
2023/02/21 05:18:56;;;;;;;25.37;9.93;;;;;;;3.97;83.13;99827.00;1452562;88;22070;-81
2023/02/21 05:21:22;;;;;;;17.90;9.93;;;;;;;3.98;82.67;99828.66;1472019;88;23033;-82
2023/02/21 05:23:55;;;;;;;19.93;11.70;;;;;;;3.97;82.85;99823.53;1472773;88;22033;-83
2023/02/21 05:26:26;;;;;;;20.47;11.07;;;;;;;3.95;82.77;99823.66;1469961;88;22021;-80
2023/02/21 05:28:53;;;;;;;18.13;10.23;;;;;;;3.93;82.82;99822.94;1477432;88;22021;-80
2023/02/21 05:31:20;;;;;;;26.83;10.47;;;;;;;3.92;82.92;99823.91;1472782;88;22203;-80
2023/02/21 05:33:46;;;;;;;14.93;7.60;;;;;;;3.91;83.15;99823.53;1475810;88;22169;-82
2023/02/21 05:36:12;;;;;;;15.97;9.93;;;;;;;3.90;83.34;99824.49;1470387;88;22032;-82
2023/02/21 05:38:49;;;;;;;19.20;9.63;;;;;;;3.91;83.43;99820.08;1476396;88;23097;-81
2023/02/21 05:41:17;;;;;;;16.23;10.40;;;;;;;3.93;83.63;99817.70;1476658;88;22173;-83
2023/02/21 05:43:48;;;;;;;23.30;12.43;;;;;;;3.96;83.35;99816.16;1472035;88;22187;-81
2023/02/21 05:46:28;;;;;;;27.47;14.63;;;;;;;3.97;83.23;99819.16;1402472;88;22006;-83
2023/02/21 05:48:56;;;;;;;33.67;15.10;;;;;;;3.99;83.19;99816.39;1558977;88;21895;-83
2023/02/21 05:51:23;;;;;;;18.87;10.43;;;;;;;4.01;83.44;99821.88;1395638;88;21921;-81
2023/02/21 05:53:50;;;;;;;21.27;11.37;;;;;;;4.06;83.80;99813.19;1403613;88;22115;-83
2023/02/21 05:56:17;;;;;;;16.07;8.20;;;;;;;4.16;84.18;99817.69;1398032;88;21962;-84
2023/02/21 05:58:44;;;;;;;38.90;7.70;;;;;;;4.32;84.66;99815.53;1402512;88;22019;-84
2023/02/21 06:01:11;;;;;;;11.00;6.10;;;;;;;4.47;84.58;99816.91;1558842;88;21984;-83
2023/02/21 06:03:37;;;;;;;10.10;6.50;;;;;;;4.68;83.98;99812.87;1396674;88;21986;-82
2023/02/21 06:06:05;;;;;;;14.37;7.57;;;;;;;4.97;83.14;99819.80;1404048;88;21436;-83
2023/02/21 06:08:31;;;;;;;9.83;6.03;;;;;;;4.97;83.14;99819.80;1397561;88;22177;-83
2023/02/21 06:10:57;;;;;;;10.03;6.23;;;;;;;5.09;82.38;99802.25;1404571;88;21352;-83
2023/02/21 06:13:23;;;;;;;13.80;6.27;;;;;;;5.26;82.62;99808.69;1558825;88;21239;-84
2023/02/21 06:15:50;;;;;;;9.77;6.13;;;;;;;5.37;80.97;99805.17;1554308;88;22191;-84
2023/02/21 06:18:16;;;;;;;17.13;7.70;;;;;;;5.52;81.18;99810.42;1388416;89;21274;-83
2023/02/21 06:20:43;;;;;;;13.77;6.93;;;;;;;5.64;80.26;99812.52;1397906;88;21297;-80
2023/02/21 06:23:09;;;;;;;14.33;7.40;;;;;;;5.73;79.79;99818.28;1381005;90;22132;-82
2023/02/21 06:25:37;;;;;;;21.90;7.77;;;;;;;5.79;79.69;99825.63;1398668;88;21356;-82
2023/02/21 06:28:04;;;;;;;16.40;8.07;;;;;;;5.85;79.33;99835.61;1396565;88;21238;-82
2023/02/21 06:30:30;;;;;;;12.43;7.77;;;;;;;5.91;79.33;99832.94;1403667;88;21246;-83
2023/02/21 06:32:56;;;;;;;18.23;7.43;;;;;;;6.00;79.18;99841.84;1404330;88;21296;-81
2023/02/21 06:35:22;;;;;;;15.00;7.23;;;;;;;6.07;79.22;99840.34;1398918;88;21363;-83
2023/02/21 06:37:48;;;;;;;15.70;7.53;;;;;;;6.17;78.72;99839.08;1424315;88;21378;-83
2023/02/21 06:40:14;;;;;;;15.47;8.40;;;;;;;6.23;78.00;99843.30;1475369;88;21377;-84
2023/02/21 06:42:41;;;;;;;12.93;7.23;;;;;;;6.29;77.83;99846.70;1476012;88;22397;-82
2023/02/21 06:45:07;;;;;;;12.70;7.77;;;;;;;6.37;77.45;99849.16;1476414;88;21429;-83
2023/02/21 06:47:34;;;;;;;14.53;6.97;;;;;;;6.42;76.80;99853.05;1471899;88;22309;-82
2023/02/21 06:50:00;;;;;;;14.93;7.37;;;;;;;6.45;76.59;99848.01;1473785;88;21400;-82
2023/02/21 06:52:26;;;;;;;12.00;6.23;;;;;;;6.51;76.96;99852.23;1473362;88;21525;-83
2023/02/21 06:54:52;;;;;;;11.30;6.70;;;;;;;6.58;76.87;99847.74;1472621;88;22184;-84
2023/02/21 06:57:18;;;;;;;9.37;6.67;;;;;;;6.65;76.11;99848.39;1472988;88;21415;-83
2023/02/21 06:59:44;;;;;;;10.13;5.60;;;;;;;6.76;75.93;99839.06;1477494;88;22287;-83
2023/02/21 07:02:18;;;;;;;8.80;5.10;;;;;;;6.89;76.44;99853.24;1454603;88;21592;-84
2023/02/21 07:04:45;;;;;;;7.60;4.53;;;;;;;7.02;76.04;99846.41;1523130;88;21479;-80
2023/02/21 07:07:13;;;;;;;8.67;4.93;;;;;;;7.11;75.47;99843.42;1397069;88;21231;-79
2023/02/21 07:09:44;;;;;;;6.73;4.60;;;;;;;7.19;75.06;99839.13;1397598;88;22074;-81
2023/02/21 07:12:11;;;;;;;8.13;4.63;;;;;;;7.26;73.63;99837.24;1395103;88;21208;-81
2023/02/21 07:14:37;;;;;;;9.27;5.57;;;;;;;7.37;73.73;99837.91;1398430;88;21297;-81
2023/02/21 07:21:02;;;;;;;13.77;6.00;;;;;;;7.54;73.39;99837.67;1558992;88;21268;-83
2023/02/21 07:23:30;;;;;;;8.33;4.63;;;;;;;7.66;73.58;99828.63;1398461;88;21253;-84
2023/02/21 07:25:56;;;;;;;8.63;5.10;;;;;;;7.77;72.86;99832.04;1396242;88;21304;-81
2023/02/21 07:28:22;;;;;;;7.93;5.27;;;;;;;7.85;71.57;99830.38;1397891;88;22110;-82
2023/02/21 07:30:48;;;;;;;12.13;6.30;;;;;;;7.97;72.47;99831.48;1398631;88;21371;-83
2023/02/21 07:33:30;;;;;;;17.13;7.23;;;;;;;8.07;71.39;99835.74;1393956;89;21319;-80
2023/02/21 07:35:56;;;;;;;7.77;4.33;;;;;;;8.18;72.05;99827.31;1398445;88;21238;-82
2023/02/21 07:38:26;;;;;;;13.73;6.40;;;;;;;8.30;70.81;99835.36;1398681;88;21385;-81
2023/02/21 07:40:58;;;;;;;14.50;7.22;;;;;;;8.39;70.67;99829.72;1394059;88;22177;-82
2023/02/21 07:43:26;;;;;;;8.83;5.30;;;;;;;8.50;70.96;99839.56;1401259;88;22251;-81
2023/02/21 07:45:53;;;;;;;11.30;4.03;;;;;;;8.67;71.32;99841.06;1447874;88;21415;-82
2023/02/21 07:48:19;;;;;;;15.00;6.70;;;;;;;8.85;71.37;99849.80;1398047;88;22271;-81
2023/02/21 07:50:46;;;;;;;8.70;5.03;;;;;;;9.03;70.95;99857.25;1554806;88;21429;-80
2023/02/21 07:53:13;;;;;;;13.10;6.77;;;;;;;9.21;70.09;99840.06;1381484;89;22096;-82
2023/02/21 07:55:40;;;;;;;5.07;2.93;;;;;;;9.39;70.14;99844.48;1381672;90;21274;-81
2023/02/21 07:58:06;;;;;;;5.17;2.60;;;;;;;9.54;68.78;99843.43;1398541;88;21178;-82
2023/02/21 08:00:33;;;;;;;6.27;3.80;;;;;;;9.66;67.14;99835.57;1398255;88;21260;-81
2023/02/21 08:02:59;;;;;;;6.47;2.47;;;;;;;9.80;66.82;99852.17;1403889;88;21470;-80
2023/02/21 08:05:26;;;;;;;6.17;3.27;;;;;;;9.91;66.99;99850.59;1398562;88;21319;-81
2023/02/21 08:07:53;;;;;;;7.37;3.10;;;;;;;10.03;66.16;99841.06;1398765;88;21387;-81
2023/02/21 08:10:25;;;;;;;4.47;2.70;;;;;;;10.16;66.34;99837.50;1374565;90;21284;-82
2023/02/21 08:12:51;;;;;;;8.07;5.00;;;;;;;10.26;65.36;99841.32;1400945;88;21200;-80
2023/02/21 08:15:18;;;;;;;5.83;3.27;;;;;;;10.36;65.20;99849.50;1398255;88;21476;-81
2023/02/21 08:17:49;;;;;;;12.40;5.40;;;;;;;10.49;65.18;99841.59;1398251;88;21531;-81
2023/02/21 08:20:16;;;;;;;8.50;3.13;;;;;;;10.58;64.30;99844.09;1558942;88;21187;-88
2023/02/21 08:22:42;;;;;;;5.93;2.90;;;;;;;10.69;64.05;99849.58;1403577;88;21496;-81
2023/02/21 08:25:13;;;;;;;6.47;3.30;;;;;;;10.80;64.93;99851.92;1460405;88;21459;-82
2023/02/21 08:27:42;;;;;;;7.75;4.53;;;;;;;10.90;63.65;99850.93;1471988;88;21399;-82
2023/02/21 08:30:13;;;;;;;3.80;2.30;;;;;;;10.99;63.47;99844.17;1478891;88;21443;-82
2023/02/21 08:32:39;;;;;;;4.33;2.40;;;;;;;11.10;61.75;99844.33;1457421;88;21385;-82
2023/02/21 08:35:07;;;;;;;4.30;2.80;;;;;;;11.17;62.24;99849.31;1457065;88;21400;-82
2023/02/21 08:37:35;;;;;;;5.83;3.17;;;;;;;11.23;62.19;99847.31;1472078;88;21504;-81
2023/02/21 08:40:03;;;;;;;6.63;2.63;;;;;;;11.33;61.20;99847.64;1451623;88;22222;-82
2023/02/21 08:42:30;;;;;;;8.67;3.83;;;;;;;11.46;61.37;99853.27;1392592;89;21253;-81
2023/02/21 08:44:56;;;;;;;3.57;2.53;;;;;;;11.59;62.20;99848.27;1400759;88;21289;-82
2023/02/21 08:47:22;;;;;;;6.93;3.10;;;;;;;11.73;62.13;99861.33;1395267;88;22185;-82
2023/02/21 08:49:48;;;;;;;4.90;2.77;;;;;;;11.83;60.39;99855.86;1395180;88;21297;-81
2023/02/21 08:52:16;;;;;;;3.77;2.53;;;;;;;11.87;59.53;99859.34;1395374;89;21318;-82
2023/02/21 08:54:43;;;;;;;7.13;2.67;;;;;;;11.92;59.02;99858.84;1509502;88;21319;-80
2023/02/21 08:57:10;;;;;;;6.73;2.57;;;;;;;11.97;57.92;99847.23;1394665;88;21267;-80
2023/02/21 08:59:43;;;;;;;3.33;2.20;;;;;;;12.11;60.12;99865.09;1394888;88;21253;-78
2023/02/21 09:02:25;;;;;;;4.83;2.30;;;;;;;12.21;58.84;99866.71;1525878;88;21584;-78
2023/02/21 09:04:53;;;;;;;6.30;2.83;;;;;;;12.37;58.72;99862.17;1468677;88;21385;-79
2023/02/21 09:07:21;;;;;;;5.83;2.20;;;;;;;12.42;57.96;99862.45;1393761;88;21289;-79
2023/02/21 09:09:48;;;;;;;4.87;3.00;;;;;;;12.46;57.78;99872.24;1551788;88;21481;-78
2023/02/21 09:12:21;;;;;;;2.63;1.90;;;;;;;12.51;57.30;99873.86;1395147;88;21386;-79
2023/02/21 09:14:47;;;;;;;4.70;3.07;;;;;;;12.47;55.96;99857.97;1395552;88;22111;-80
2023/02/21 09:17:13;;;;;;;4.13;2.77;;;;;;;12.50;56.22;99859.45;1395513;88;21224;-80
2023/02/21 09:19:40;;;;;;;6.30;2.47;;;;;;;12.59;56.78;99876.98;1381120;89;21481;-81
2023/02/21 09:22:08;;;;;;;8.00;2.93;;;;;;;12.76;57.35;99868.42;1435447;88;22250;-81
2023/02/21 09:24:36;;;;;;;3.87;2.15;;;;;;;12.90;56.87;99869.00;1531996;88;21363;-80
2023/02/21 09:27:04;;;;;;;3.83;2.30;;;;;;;13.13;57.79;99874.83;1394901;88;21320;-79
2023/02/21 09:29:35;;;;;;;11.87;3.30;;;;;;;13.40;57.55;99876.12;1394054;88;21260;-78
2023/02/21 09:32:02;;;;;;;;;;;;;;;13.61;55.18;99884.73;1395111;88;22066;-78
2023/02/21 09:34:29;;;;;;;2.23;1.67;;;;;;;13.91;53.35;99873.13;1407097;88;20323;-81
2023/02/21 09:36:55;;;;;;;4.23;2.53;;;;;;;14.41;51.83;99867.58;1394799;88;21379;-82
2023/02/21 09:39:23;;;;;;;3.53;2.00;;;;;;;14.95;52.21;99873.00;1395766;88;21319;-83
2023/02/21 09:41:52;;;;;;;3.07;2.33;;;;;;;15.42;49.47;99866.77;1394428;88;21252;-83
2023/02/21 09:44:26;;;;;;;5.83;2.93;;;;;;;15.80;48.23;99875.31;1392107;88;21245;-80
2023/02/21 09:47:03;;;;;;;4.43;2.40;;;;;;;16.38;48.69;99867.00;1555745;88;21172;-83
2023/02/21 09:49:40;;;;;;;6.80;1.75;;;;;;;16.68;46.57;99872.84;1555090;88;21246;-83
2023/02/21 09:52:11;;;;;;;3.90;2.67;;;;;;;16.85;46.09;99890.72;1555244;88;21209;-83
2023/02/21 09:54:44;;;;;;;4.45;1.98;;;;;;;17.16;46.75;99872.79;1397614;90;21334;-83
2023/02/21 09:57:14;;;;;;;4.65;1.80;;;;;;;17.04;45.94;99876.58;1390898;90;22170;-85
2023/02/21 09:59:41;;;;;;;8.73;2.25;;;;;;;16.82;47.24;99867.06;1391860;88;21582;-86
2023/02/21 10:02:45;;;;;;;4.10;2.27;;;;;;;16.37;47.62;99870.67;1394520;88;22081;-87
2023/02/21 10:05:22;;;;;;;4.97;2.60;;;;;;;15.98;48.03;99855.60;1392842;88;21408;-90
2023/02/21 10:08:12;;;;;;;3.20;2.40;;;;;;;15.45;48.27;99856.56;1554102;88;21297;-91
2023/02/21 10:10:49;;;;;;;5.13;2.60;;;;;;;15.10;49.30;99861.80;1555126;88;21229;-87
2023/02/21 10:13:23;;;;;;;8.13;2.60;;;;;;;14.73;50.02;99846.88;1517717;88;22450;-89
2023/02/21 10:16:17;;;;;;;5.13;2.30;;;;;;;14.66;50.66;99841.45;1471063;88;21422;-90
2023/02/21 10:19:19;;;;;;;3.97;2.53;;;;;;;15.21;49.66;99839.11;1437948;90;21635;-82
2023/02/21 10:21:48;;;;;;;13.83;2.77;;;;;;;15.99;48.14;99836.41;1440274;90;21539;-82
2023/02/21 10:24:19;;;;;;;5.50;2.53;;;;;;;16.42;47.32;99826.84;1427020;94;21304;-82
2023/02/21 10:27:06;;;;;;;5.97;3.55;;;;;;;16.92;47.08;99824.75;1425837;90;22385;-85
2023/02/21 10:29:46;;;;;;;8.40;3.90;;;;;;;17.36;46.45;99811.29;1383486;94;21650;-84
2023/02/21 10:32:13;;;;;;;8.85;3.05;;;;;;;17.74;45.48;99802.59;1435566;90;21398;-84
2023/02/21 10:34:42;;;;;;;3.22;1.90;;;;;;;17.97;43.54;99810.98;1383913;94;21443;-85
2023/02/21 10:37:25;;;;;;;3.72;2.05;;;;;;;18.25;42.89;99804.52;1435297;90;21628;-82
2023/02/21 10:40:08;;;;;;;5.35;2.17;;;;;;;18.26;43.43;99806.14;1380072;94;21542;-80
2023/02/21 10:42:43;;;;;;;7.22;1.57;;;;;;;18.29;42.86;99812.41;1441314;90;21509;-80
2023/02/21 10:45:12;;;;;;;1.92;1.30;;;;;;;18.33;42.09;99811.50;1438996;90;21472;-80
2023/02/21 10:48:01;;;;;;;20.23;3.15;;;;;;;18.42;41.90;99811.02;1317178;94;22391;-81
2023/02/21 10:50:54;;;;;;;2.52;1.77;;;;;;;18.67;42.81;99819.14;1496045;90;22350;-75
2023/02/21 10:53:28;;;;;;;2.45;1.30;;;;;;;19.06;42.95;99813.75;1462395;94;21382;-76
2023/02/21 10:56:17;;;;;;;2.47;1.20;;;;;;;19.11;40.26;99827.34;1448362;88;22318;-75
2023/02/21 10:59:05;;;;;;;2.12;1.22;;;;;;;19.38;41.57;99819.88;1555194;88;22097;-76
2023/02/21 11:01:43;;;;;;;3.77;1.60;;;;;;;19.15;39.88;99813.78;1538703;88;21282;-76
2023/02/21 11:04:27;;;;;;;1.80;1.37;;;;;;;19.07;41.02;99814.05;1555238;88;22219;-76
2023/02/21 11:07:04;;;;;;;3.83;1.70;;;;;;;19.12;40.36;99818.24;1390219;91;21267;-75
2023/02/21 11:09:41;;;;;;;3.52;1.60;;;;;;;18.95;40.58;99812.59;1549173;88;21282;-75
2023/02/21 11:12:24;;;;;;;3.17;1.50;;;;;;;18.93;40.31;99814.16;1555140;88;22202;-75
2023/02/21 11:14:58;;;;;;;4.22;1.52;;;;;;;18.92;40.50;99811.16;1548998;88;21274;-74
2023/02/21 11:17:28;;;;;;;2.80;1.57;;;;;;;18.82;40.33;99813.52;1555302;88;22053;-76
2023/02/21 11:19:59;;;;;;;2.42;1.42;;;;;;;19.14;40.77;99813.48;1392568;88;22133;-76
2023/02/21 11:22:36;;;;;;;3.25;1.57;;;;;;;19.20;39.85;99815.30;1554269;88;22052;-75
2023/02/21 11:25:17;;;;;;;3.02;1.72;;;;;;;19.23;39.99;99818.87;1523569;88;21385;-75
2023/02/21 11:27:44;;;;;;;3.55;1.72;;;;;;;19.21;39.67;99810.22;1392579;90;22185;-74
2023/02/21 11:30:19;;;;;;;2.45;1.30;;;;;;;19.23;39.26;99814.85;1394382;88;21220;-76
2023/02/21 11:32:52;;;;;;;1.35;0.68;;;;;;;19.53;40.97;99816.85;1555144;88;22075;-76
2023/02/21 11:35:29;;;;;;;7.97;1.35;;;;;;;19.51;38.90;99818.95;1466520;88;22170;-76
2023/02/21 11:38:00;;;;;;;2.87;1.25;;;;;;;19.51;38.61;99818.95;1475044;88;21462;-75
2023/02/21 11:40:44;;;;;;;2.35;1.25;;;;;;;19.31;37.83;99811.90;1468947;88;21333;-76
2023/02/21 11:43:28;;;;;;;2.15;1.40;;;;;;;19.42;39.08;99817.57;1472851;88;21318;-74
2023/02/21 11:46:41;;;;;;;1.10;0.90;;;;;;;19.47;38.63;99811.03;1397235;88;21393;-75
2023/02/21 11:49:31;;;;;;;4.60;1.30;;;;;;;19.43;38.59;99811.19;1521313;88;21393;-76
2023/02/21 11:52:14;;;;;;;2.77;1.60;;;;;;;19.64;39.09;99805.39;1395022;90;22104;-75
2023/02/21 11:54:41;;;;;;;2.55;1.00;;;;;;;19.30;39.04;99798.16;1548926;88;22304;-77
2023/02/21 11:57:33;;;;;;;2.87;1.25;;;;;;;19.02;38.80;99808.02;1395290;88;22080;-76
2023/02/21 12:00:23;;;;;;;2.27;1.40;;;;;;;19.36;38.16;99797.31;1393096;88;21253;-75
2023/02/21 12:03:13;;;;;;;3.50;1.65;;;;;;;19.36;38.96;99799.99;1555423;88;21157;-88
2023/02/21 12:06:06;;;;;;;2.90;1.47;;;;;;;19.72;38.57;99794.40;1472953;88;21304;-84
2023/02/21 12:09:00;;;;;;;3.17;1.10;;;;;;;19.45;38.54;99799.19;1555782;88;21209;-84
2023/02/21 12:11:50;;;;;;;2.00;1.35;;;;;;;19.79;37.79;99799.19;1550544;88;21289;-86
2023/02/21 12:14:52;;;;;;;2.85;1.17;;;;;;;20.02;38.10;99796.33;1399596;88;21296;-85
2023/02/21 12:17:50;;;;;;;6.62;1.12;;;;;;;20.25;37.43;99800.51;1391503;88;21253;-85
2023/02/21 12:20:34;;;;;;;2.87;1.35;;;;;;;19.85;37.41;99805.50;1555107;88;22279;-86
2023/02/21 12:23:41;;;;;;;2.52;1.50;;;;;;;19.46;38.12;99796.80;1555108;88;21187;-86
2023/02/21 12:26:28;;;;;;;1.65;0.88;;;;;;;19.21;38.46;99790.09;1447475;88;21260;-86
2023/02/21 12:29:11;;;;;;;1.72;1.27;;;;;;;19.62;38.99;99791.36;1410543;88;21578;-87
2023/02/21 12:32:01;;;;;;;1.87;1.07;;;;;;;19.83;37.31;99784.27;1535197;88;21311;-86
2023/02/21 12:34:42;;;;;;;4.62;1.50;;;;;;;20.08;37.68;99789.23;1402625;88;21326;-86
2023/02/21 12:37:22;;;;;;;1.80;1.35;;;;;;;20.37;37.75;99784.94;1549049;88;21275;-84
2023/02/21 12:40:00;;;;;;;2.02;1.05;;;;;;;20.69;36.75;99789.08;1485117;88;22302;-85
2023/02/21 12:43:24;;;;;;;1.50;1.10;;;;;;;20.40;36.75;99781.80;1467715;88;21629;-86
2023/02/21 12:46:14;;;;;;;1.67;1.10;;;;;;;20.39;36.17;99784.20;1469329;88;22421;-86
2023/02/21 12:48:48;;;;;;;2.22;1.30;;;;;;;20.83;37.09;99792.39;1468797;88;21347;-82
2023/02/21 12:51:23;;;;;;;3.12;1.62;;;;;;;20.37;36.65;99779.56;1467502;88;21466;-82
2023/02/21 12:54:03;;;;;;;5.05;1.50;;;;;;;20.01;36.82;99779.93;1472826;88;22369;-83
2023/02/21 12:56:52;;;;;;;4.62;1.80;;;;;;;19.43;37.59;99778.98;1467943;88;22361;-83
2023/02/21 12:59:23;;;;;;;3.17;1.55;;;;;;;18.83;39.34;99781.63;1467157;88;21859;-82
2023/02/21 13:01:57;;;;;;;5.92;1.37;;;;;;;18.83;39.34;99781.63;1466198;88;22904;-84
2023/02/21 13:05:06;;;;;;;5.30;1.85;;;;;;;18.63;39.43;99779.58;1468717;88;21459;-83
2023/02/21 13:07:44;;;;;;;1.98;1.60;;;;;;;18.12;40.32;99778.59;1451213;88;21562;-81
2023/02/21 13:10:51;;;;;;;2.45;1.40;;;;;;;17.82;41.13;99779.64;1464104;88;21540;-82
2023/02/21 13:13:25;;;;;;;1.60;1.40;;;;;;;17.48;41.88;99772.17;1468825;88;22456;-82
2023/02/21 13:15:54;;;;;;;5.00;1.65;;;;;;;17.25;42.17;99774.47;1470278;88;22360;-82
2023/02/21 13:26:29;;;;;;;2.07;1.40;;;;;;;16.66;43.08;99777.41;1467623;88;21637;-81
2023/02/21 13:28:58;;;;;;;3.90;1.90;;;;;;;17.21;43.14;99775.92;1474746;88;22383;-81
2023/02/21 13:31:35;;;;;;;3.40;2.20;;;;;;;18.00;42.44;99771.75;1392552;88;21216;-81
2023/02/21 13:34:02;;;;;;;2.33;1.87;;;;;;;18.69;41.01;99774.16;1492373;88;21384;-80
2023/02/21 13:36:40;;;;;;;2.77;1.77;;;;;;;19.04;39.83;99776.94;1440035;88;21290;-80
2023/02/21 13:39:17;;;;;;;1.57;0.90;;;;;;;19.12;38.65;99786.05;1467071;88;21340;-80
2023/02/21 13:42:05;;;;;;;2.90;1.52;;;;;;;19.38;38.08;99778.30;1391085;88;21407;-79
2023/02/21 13:44:37;;;;;;;1.02;0.80;;;;;;;19.74;38.04;99778.89;1554895;88;21113;-80
2023/02/21 13:47:16;;;;;;;5.22;1.02;;;;;;;20.06;35.76;99781.42;1397321;88;21266;-81
2023/02/21 13:49:56;;;;;;;2.05;1.00;;;;;;;20.30;36.65;99778.31;1392846;88;21476;-80
2023/02/21 13:52:52;;;;;;;1.20;0.70;;;;;;;20.33;36.28;99766.30;1393659;88;21253;-82
2023/02/21 13:55:22;;;;;;;1.17;0.85;;;;;;;20.18;35.85;99772.89;1555049;88;21268;-80
2023/02/21 13:57:55;;;;;;;1.02;0.70;;;;;;;19.69;36.24;99777.92;1397060;88;21267;-79
2023/02/21 14:05:00;;;;;;;5.05;1.40;;;;;;;18.82;37.47;99769.28;1419403;90;21458;-82
2023/02/21 14:07:59;;;;;;;3.02;1.27;;;;;;;18.35;38.19;99774.58;1400214;90;21442;-81
2023/02/21 14:10:34;;;;;;;2.05;1.75;;;;;;;17.91;39.33;99781.58;1441047;90;21405;-81
2023/02/21 14:13:11;;;;;;;3.40;1.40;;;;;;;17.75;39.18;99782.81;1368132;90;22212;-80
2023/02/21 14:15:42;;;;;;;7.30;1.47;;;;;;;17.45;39.66;99780.61;1372278;90;21451;-79
2023/02/21 14:18:22;;;;;;;4.00;1.30;;;;;;;17.28;39.73;99783.41;1525093;90;21162;-77
2023/02/21 14:20:53;;;;;;;4.45;1.77;;;;;;;17.08;39.98;99784.23;1524802;90;21383;-80
2023/02/21 14:23:24;;;;;;;2.07;1.37;;;;;;;16.84;40.67;99782.18;1506709;90;21303;-79
2023/02/21 14:25:58;;;;;;;3.72;2.12;;;;;;;16.59;41.40;99784.05;1366747;90;21340;-79
2023/02/21 14:29:04;;;;;;;1.57;1.03;;;;;;;16.24;42.45;99786.83;1511901;90;21332;-80
2023/02/21 14:32:04;;;;;;;1.10;1.00;;;;;;;16.08;42.77;99789.84;1525243;90;22368;-82
2023/02/21 14:34:53;;;;;;;1.80;1.07;;;;;;;15.95;43.02;99785.27;1486875;90;21449;-80
2023/02/21 14:37:33;;;;;;;1.83;1.00;;;;;;;15.81;43.40;99781.41;1375335;90;21502;-80